sensor_id;sensor_type;location;lat;lon;timestamp;temperature;humidity
21592;DHT22;10958;50.892;3.992;2023-09-30T00:01:09;14.80;99.90
21592;DHT22;10958;50.892;3.992;2023-09-30T00:03:35;14.90;99.90
21592;DHT22;10958;50.892;3.992;2023-09-30T00:06:08;15.10;99.90
21592;DHT22;10958;50.892;3.992;2023-09-30T00:08:34;15.00;99.90
21592;DHT22;10958;50.892;3.992;2023-09-30T00:11:03;14.90;99.90
21592;DHT22;10958;50.892;3.992;2023-09-30T00:13:31;15.00;99.90
21592;DHT22;10958;50.892;3.992;2023-09-30T00:15:57;15.10;99.90
21592;DHT22;10958;50.892;3.992;2023-09-30T00:18:26;15.00;99.90
21592;DHT22;10958;50.892;3.992;2023-09-30T00:20:55;14.80;99.90
21592;DHT22;10958;50.892;3.992;2023-09-30T00:23:20;14.80;99.90
21592;DHT22;10958;50.892;3.992;2023-09-30T00:25:47;14.90;99.90
21592;DHT22;10958;50.892;3.992;2023-09-30T00:28:17;14.90;99.90
21592;DHT22;10958;50.892;3.992;2023-09-30T00:30:44;14.90;99.90
21592;DHT22;10958;50.892;3.992;2023-09-30T00:33:13;14.90;99.90
21592;DHT22;10958;50.892;3.992;2023-09-30T00:35:39;15.00;99.90
21592;DHT22;10958;50.892;3.992;2023-09-30T00:38:05;14.90;99.90
21592;DHT22;10958;50.892;3.992;2023-09-30T00:40:30;14.80;99.90
21592;DHT22;10958;50.892;3.992;2023-09-30T00:42:58;14.80;99.90
21592;DHT22;10958;50.892;3.992;2023-09-30T00:45:24;14.80;99.90
21592;DHT22;10958;50.892;3.992;2023-09-30T00:47:50;14.60;99.90
21592;DHT22;10958;50.892;3.992;2023-09-30T00:50:16;14.70;99.90
21592;DHT22;10958;50.892;3.992;2023-09-30T00:52:48;14.80;99.90
21592;DHT22;10958;50.892;3.992;2023-09-30T00:55:15;14.90;99.90
21592;DHT22;10958;50.892;3.992;2023-09-30T00:57:42;14.90;99.90
21592;DHT22;10958;50.892;3.992;2023-09-30T01:00:11;14.70;99.90
21592;DHT22;10958;50.892;3.992;2023-09-30T01:02:40;14.60;99.90
21592;DHT22;10958;50.892;3.992;2023-09-30T01:05:09;14.60;99.90
21592;DHT22;10958;50.892;3.992;2023-09-30T01:07:38;14.70;99.90
21592;DHT22;10958;50.892;3.992;2023-09-30T01:10:04;14.70;99.90
21592;DHT22;10958;50.892;3.992;2023-09-30T01:12:33;14.70;99.90
21592;DHT22;10958;50.892;3.992;2023-09-30T01:15:04;14.80;99.90
21592;DHT22;10958;50.892;3.992;2023-09-30T01:17:32;14.80;99.90
21592;DHT22;10958;50.892;3.992;2023-09-30T01:20:01;14.90;99.90
21592;DHT22;10958;50.892;3.992;2023-09-30T01:22:30;14.80;99.90
21592;DHT22;10958;50.892;3.992;2023-09-30T01:24:56;14.80;99.90
21592;DHT22;10958;50.892;3.992;2023-09-30T01:27:22;14.50;99.90
21592;DHT22;10958;50.892;3.992;2023-09-30T01:29:48;14.60;99.90
21592;DHT22;10958;50.892;3.992;2023-09-30T01:32:15;14.70;99.90
21592;DHT22;10958;50.892;3.992;2023-09-30T01:34:41;14.90;99.90
21592;DHT22;10958;50.892;3.992;2023-09-30T01:37:07;14.70;99.90
21592;DHT22;10958;50.892;3.992;2023-09-30T01:39:35;14.70;99.90
21592;DHT22;10958;50.892;3.992;2023-09-30T01:42:01;14.60;99.90
21592;DHT22;10958;50.892;3.992;2023-09-30T01:44:27;14.50;99.90
21592;DHT22;10958;50.892;3.992;2023-09-30T01:46:54;14.60;99.90
21592;DHT22;10958;50.892;3.992;2023-09-30T01:49:20;14.60;99.90
21592;DHT22;10958;50.892;3.992;2023-09-30T01:51:49;14.50;99.90
21592;DHT22;10958;50.892;3.992;2023-09-30T01:54:15;14.40;99.90
21592;DHT22;10958;50.892;3.992;2023-09-30T01:56:41;14.20;99.90
21592;DHT22;10958;50.892;3.992;2023-09-30T01:59:07;14.40;99.90
21592;DHT22;10958;50.892;3.992;2023-09-30T02:01:32;14.60;99.90
21592;DHT22;10958;50.892;3.992;2023-09-30T02:03:58;14.60;99.90
21592;DHT22;10958;50.892;3.992;2023-09-30T02:06:26;14.60;99.90
21592;DHT22;10958;50.892;3.992;2023-09-30T02:08:53;14.60;99.90
21592;DHT22;10958;50.892;3.992;2023-09-30T02:11:19;14.30;99.90
21592;DHT22;10958;50.892;3.992;2023-09-30T02:13:45;14.50;99.90
21592;DHT22;10958;50.892;3.992;2023-09-30T02:16:14;14.60;99.90
21592;DHT22;10958;50.892;3.992;2023-09-30T02:18:43;14.60;99.90
21592;DHT22;10958;50.892;3.992;2023-09-30T02:21:10;14.60;99.90
21592;DHT22;10958;50.892;3.992;2023-09-30T02:23:39;14.50;99.90
21592;DHT22;10958;50.892;3.992;2023-09-30T02:26:04;14.50;99.90
21592;DHT22;10958;50.892;3.992;2023-09-30T02:28:32;14.50;99.90
21592;DHT22;10958;50.892;3.992;2023-09-30T02:31:00;14.60;99.90
21592;DHT22;10958;50.892;3.992;2023-09-30T02:33:26;14.60;99.90
21592;DHT22;10958;50.892;3.992;2023-09-30T02:35:52;14.60;99.90
21592;DHT22;10958;50.892;3.992;2023-09-30T02:38:18;14.50;99.90
21592;DHT22;10958;50.892;3.992;2023-09-30T02:40:47;14.40;99.90
21592;DHT22;10958;50.892;3.992;2023-09-30T02:43:17;14.50;99.90
21592;DHT22;10958;50.892;3.992;2023-09-30T02:45:42;14.60;99.90
21592;DHT22;10958;50.892;3.992;2023-09-30T02:48:09;14.70;99.90
21592;DHT22;10958;50.892;3.992;2023-09-30T02:50:37;14.70;99.90
21592;DHT22;10958;50.892;3.992;2023-09-30T02:53:08;14.40;99.90
21592;DHT22;10958;50.892;3.992;2023-09-30T02:55:36;14.40;99.90
21592;DHT22;10958;50.892;3.992;2023-09-30T02:58:02;14.60;99.90
21592;DHT22;10958;50.892;3.992;2023-09-30T03:00:30;14.60;99.90
21592;DHT22;10958;50.892;3.992;2023-09-30T03:03:02;14.50;99.90
21592;DHT22;10958;50.892;3.992;2023-09-30T03:05:28;14.30;99.90
21592;DHT22;10958;50.892;3.992;2023-09-30T03:07:56;14.20;99.90
21592;DHT22;10958;50.892;3.992;2023-09-30T03:10:26;14.20;99.90
21592;DHT22;10958;50.892;3.992;2023-09-30T03:12:53;14.30;99.90
21592;DHT22;10958;50.892;3.992;2023-09-30T03:15:19;14.40;99.90
21592;DHT22;10958;50.892;3.992;2023-09-30T03:17:48;14.40;99.90
21592;DHT22;10958;50.892;3.992;2023-09-30T03:20:14;14.40;99.90
21592;DHT22;10958;50.892;3.992;2023-09-30T03:22:44;14.30;99.90
21592;DHT22;10958;50.892;3.992;2023-09-30T03:25:14;14.30;99.90
21592;DHT22;10958;50.892;3.992;2023-09-30T03:27:43;14.30;99.90
21592;DHT22;10958;50.892;3.992;2023-09-30T03:30:12;14.30;99.90
21592;DHT22;10958;50.892;3.992;2023-09-30T03:32:41;14.20;99.90
21592;DHT22;10958;50.892;3.992;2023-09-30T03:35:10;14.20;99.90
21592;DHT22;10958;50.892;3.992;2023-09-30T03:37:40;14.30;99.90
21592;DHT22;10958;50.892;3.992;2023-09-30T03:40:15;14.20;99.90
21592;DHT22;10958;50.892;3.992;2023-09-30T03:42:45;14.20;99.90
21592;DHT22;10958;50.892;3.992;2023-09-30T03:45:11;14.30;99.90
21592;DHT22;10958;50.892;3.992;2023-09-30T03:47:40;14.20;99.90
21592;DHT22;10958;50.892;3.992;2023-09-30T03:50:06;14.20;99.90
21592;DHT22;10958;50.892;3.992;2023-09-30T03:52:39;14.30;99.90
21592;DHT22;10958;50.892;3.992;2023-09-30T03:55:12;14.20;99.90
21592;DHT22;10958;50.892;3.992;2023-09-30T03:57:41;14.10;99.90
21592;DHT22;10958;50.892;3.992;2023-09-30T04:00:13;14.00;99.90
21592;DHT22;10958;50.892;3.992;2023-09-30T04:02:44;14.10;99.90
21592;DHT22;10958;50.892;3.992;2023-09-30T04:05:14;14.20;99.90
21592;DHT22;10958;50.892;3.992;2023-09-30T04:07:40;14.10;99.90
21592;DHT22;10958;50.892;3.992;2023-09-30T04:10:09;14.00;99.90
21592;DHT22;10958;50.892;3.992;2023-09-30T04:12:35;13.90;99.90
21592;DHT22;10958;50.892;3.992;2023-09-30T04:15:01;13.80;99.90
21592;DHT22;10958;50.892;3.992;2023-09-30T04:17:26;13.60;99.90
21592;DHT22;10958;50.892;3.992;2023-09-30T04:19:53;13.50;99.90
21592;DHT22;10958;50.892;3.992;2023-09-30T04:22:19;13.60;99.90
21592;DHT22;10958;50.892;3.992;2023-09-30T04:24:46;13.60;99.90
21592;DHT22;10958;50.892;3.992;2023-09-30T04:27:17;13.60;99.90
21592;DHT22;10958;50.892;3.992;2023-09-30T04:29:43;13.40;99.90
21592;DHT22;10958;50.892;3.992;2023-09-30T04:32:09;13.20;99.90
21592;DHT22;10958;50.892;3.992;2023-09-30T04:34:35;13.20;99.90
21592;DHT22;10958;50.892;3.992;2023-09-30T04:37:01;13.30;99.90
21592;DHT22;10958;50.892;3.992;2023-09-30T04:39:27;13.20;99.90
21592;DHT22;10958;50.892;3.992;2023-09-30T04:41:53;13.20;99.90
21592;DHT22;10958;50.892;3.992;2023-09-30T04:44:20;13.10;99.90
21592;DHT22;10958;50.892;3.992;2023-09-30T04:46:47;13.00;99.90
21592;DHT22;10958;50.892;3.992;2023-09-30T04:49:15;13.00;99.90
21592;DHT22;10958;50.892;3.992;2023-09-30T04:51:42;12.90;99.90
21592;DHT22;10958;50.892;3.992;2023-09-30T04:54:09;13.10;99.90
21592;DHT22;10958;50.892;3.992;2023-09-30T04:56:38;13.10;99.90
21592;DHT22;10958;50.892;3.992;2023-09-30T04:59:04;13.30;99.90
21592;DHT22;10958;50.892;3.992;2023-09-30T05:01:31;13.20;99.90
21592;DHT22;10958;50.892;3.992;2023-09-30T05:03:57;13.00;99.90
21592;DHT22;10958;50.892;3.992;2023-09-30T05:06:23;13.00;99.90
21592;DHT22;10958;50.892;3.992;2023-09-30T05:08:51;12.70;99.90
21592;DHT22;10958;50.892;3.992;2023-09-30T05:11:21;12.80;99.90
21592;DHT22;10958;50.892;3.992;2023-09-30T05:13:47;12.90;99.90
21592;DHT22;10958;50.892;3.992;2023-09-30T05:16:13;12.80;99.90
21592;DHT22;10958;50.892;3.992;2023-09-30T05:18:38;12.80;99.90
21592;DHT22;10958;50.892;3.992;2023-09-30T05:21:04;12.90;99.90
21592;DHT22;10958;50.892;3.992;2023-09-30T05:23:32;12.90;99.90
21592;DHT22;10958;50.892;3.992;2023-09-30T05:26:05;12.90;99.90
21592;DHT22;10958;50.892;3.992;2023-09-30T05:28:32;13.10;99.90
21592;DHT22;10958;50.892;3.992;2023-09-30T05:30:58;13.00;99.90
21592;DHT22;10958;50.892;3.992;2023-09-30T05:33:23;13.00;99.90
21592;DHT22;10958;50.892;3.992;2023-09-30T05:35:49;12.90;99.90
21592;DHT22;10958;50.892;3.992;2023-09-30T05:38:15;12.90;99.90
21592;DHT22;10958;50.892;3.992;2023-09-30T05:40:43;13.00;99.90
21592;DHT22;10958;50.892;3.992;2023-09-30T05:43:09;13.00;99.90
21592;DHT22;10958;50.892;3.992;2023-09-30T05:45:37;12.90;99.90
21592;DHT22;10958;50.892;3.992;2023-09-30T05:48:15;13.00;99.90
21592;DHT22;10958;50.892;3.992;2023-09-30T05:50:41;12.90;99.90
21592;DHT22;10958;50.892;3.992;2023-09-30T05:53:08;13.00;99.90
21592;DHT22;10958;50.892;3.992;2023-09-30T05:55:36;12.80;99.90
21592;DHT22;10958;50.892;3.992;2023-09-30T05:58:02;12.70;99.90
21592;DHT22;10958;50.892;3.992;2023-09-30T06:00:31;12.70;99.90
21592;DHT22;10958;50.892;3.992;2023-09-30T06:03:01;12.70;99.90
21592;DHT22;10958;50.892;3.992;2023-09-30T06:05:27;12.80;99.90
21592;DHT22;10958;50.892;3.992;2023-09-30T06:07:55;12.90;99.90
21592;DHT22;10958;50.892;3.992;2023-09-30T06:10:26;13.00;99.90
21592;DHT22;10958;50.892;3.992;2023-09-30T06:12:54;13.00;99.90
21592;DHT22;10958;50.892;3.992;2023-09-30T06:15:29;13.10;99.90
21592;DHT22;10958;50.892;3.992;2023-09-30T06:17:57;13.10;99.90
21592;DHT22;10958;50.892;3.992;2023-09-30T06:20:23;13.00;99.90
21592;DHT22;10958;50.892;3.992;2023-09-30T06:22:51;13.10;99.90
21592;DHT22;10958;50.892;3.992;2023-09-30T06:25:19;13.00;99.90
21592;DHT22;10958;50.892;3.992;2023-09-30T06:27:47;13.30;99.90
21592;DHT22;10958;50.892;3.992;2023-09-30T06:30:17;13.30;99.90
21592;DHT22;10958;50.892;3.992;2023-09-30T06:32:45;13.40;99.90
21592;DHT22;10958;50.892;3.992;2023-09-30T06:35:11;13.40;99.90
21592;DHT22;10958;50.892;3.992;2023-09-30T06:37:41;13.50;99.90
21592;DHT22;10958;50.892;3.992;2023-09-30T06:40:10;13.50;99.90
21592;DHT22;10958;50.892;3.992;2023-09-30T06:42:38;13.80;99.90
21592;DHT22;10958;50.892;3.992;2023-09-30T06:45:06;13.90;99.90
21592;DHT22;10958;50.892;3.992;2023-09-30T06:47:33;13.90;99.90
21592;DHT22;10958;50.892;3.992;2023-09-30T06:50:03;14.00;99.90
21592;DHT22;10958;50.892;3.992;2023-09-30T06:52:40;14.20;99.90
21592;DHT22;10958;50.892;3.992;2023-09-30T06:55:08;14.30;99.90
21592;DHT22;10958;50.892;3.992;2023-09-30T06:57:39;14.70;99.90
21592;DHT22;10958;50.892;3.992;2023-09-30T07:00:12;15.00;99.90
21592;DHT22;10958;50.892;3.992;2023-09-30T07:02:40;15.10;99.90
21592;DHT22;10958;50.892;3.992;2023-09-30T07:05:14;15.40;99.90
21592;DHT22;10958;50.892;3.992;2023-09-30T07:07:41;15.70;99.90
21592;DHT22;10958;50.892;3.992;2023-09-30T07:10:11;16.00;99.90
21592;DHT22;10958;50.892;3.992;2023-09-30T07:12:37;16.30;99.90
21592;DHT22;10958;50.892;3.992;2023-09-30T07:15:04;16.40;99.90
21592;DHT22;10958;50.892;3.992;2023-09-30T07:17:30;16.60;99.90
21592;DHT22;10958;50.892;3.992;2023-09-30T07:19:59;16.50;99.90
21592;DHT22;10958;50.892;3.992;2023-09-30T07:22:25;16.30;99.90
21592;DHT22;10958;50.892;3.992;2023-09-30T07:24:50;16.50;99.90
21592;DHT22;10958;50.892;3.992;2023-09-30T07:27:16;16.70;99.90
21592;DHT22;10958;50.892;3.992;2023-09-30T07:29:51;16.80;99.90
21592;DHT22;10958;50.892;3.992;2023-09-30T07:32:17;17.00;99.90
21592;DHT22;10958;50.892;3.992;2023-09-30T07:34:49;17.20;99.90
21592;DHT22;10958;50.892;3.992;2023-09-30T07:37:15;17.50;99.90
21592;DHT22;10958;50.892;3.992;2023-09-30T07:39:45;17.70;99.90
21592;DHT22;10958;50.892;3.992;2023-09-30T07:42:20;17.90;99.90
21592;DHT22;10958;50.892;3.992;2023-09-30T07:44:48;18.30;99.90
21592;DHT22;10958;50.892;3.992;2023-09-30T07:47:14;18.50;99.90
21592;DHT22;10958;50.892;3.992;2023-09-30T07:49:40;18.60;99.90
21592;DHT22;10958;50.892;3.992;2023-09-30T07:52:06;18.70;99.90
21592;DHT22;10958;50.892;3.992;2023-09-30T07:54:34;18.80;99.90
21592;DHT22;10958;50.892;3.992;2023-09-30T07:57:01;18.90;99.90
21592;DHT22;10958;50.892;3.992;2023-09-30T07:59:28;18.80;99.90
21592;DHT22;10958;50.892;3.992;2023-09-30T08:01:54;18.80;99.90
21592;DHT22;10958;50.892;3.992;2023-09-30T08:04:21;18.90;99.90
21592;DHT22;10958;50.892;3.992;2023-09-30T08:06:47;18.90;99.90
21592;DHT22;10958;50.892;3.992;2023-09-30T08:09:13;18.80;99.90
21592;DHT22;10958;50.892;3.992;2023-09-30T08:11:44;19.00;99.90
21592;DHT22;10958;50.892;3.992;2023-09-30T08:14:13;19.00;99.90
21592;DHT22;10958;50.892;3.992;2023-09-30T08:16:40;18.90;99.90
21592;DHT22;10958;50.892;3.992;2023-09-30T08:19:07;18.80;99.90
21592;DHT22;10958;50.892;3.992;2023-09-30T08:21:32;18.90;99.90
21592;DHT22;10958;50.892;3.992;2023-09-30T08:24:02;19.10;99.90
21592;DHT22;10958;50.892;3.992;2023-09-30T08:26:40;19.50;99.90
21592;DHT22;10958;50.892;3.992;2023-09-30T08:29:06;18.90;99.90
21592;DHT22;10958;50.892;3.992;2023-09-30T08:31:32;19.00;99.90
21592;DHT22;10958;50.892;3.992;2023-09-30T08:33:58;19.10;99.90
21592;DHT22;10958;50.892;3.992;2023-09-30T08:36:24;19.20;99.90
21592;DHT22;10958;50.892;3.992;2023-09-30T08:38:50;19.30;99.90
21592;DHT22;10958;50.892;3.992;2023-09-30T08:41:31;19.50;99.90
21592;DHT22;10958;50.892;3.992;2023-09-30T08:44:00;19.60;99.90
21592;DHT22;10958;50.892;3.992;2023-09-30T08:46:33;19.70;99.90
21592;DHT22;10958;50.892;3.992;2023-09-30T08:49:03;19.80;99.90
21592;DHT22;10958;50.892;3.992;2023-09-30T08:51:30;20.40;99.90
21592;DHT22;10958;50.892;3.992;2023-09-30T08:53:57;20.70;99.90
21592;DHT22;10958;50.892;3.992;2023-09-30T08:56:27;21.20;99.90
21592;DHT22;10958;50.892;3.992;2023-09-30T08:58:57;21.00;99.90
21592;DHT22;10958;50.892;3.992;2023-09-30T09:01:24;20.60;99.90
21592;DHT22;10958;50.892;3.992;2023-09-30T09:03:50;20.20;99.90
21592;DHT22;10958;50.892;3.992;2023-09-30T09:06:22;19.70;99.90
21592;DHT22;10958;50.892;3.992;2023-09-30T09:08:51;19.60;99.90
21592;DHT22;10958;50.892;3.992;2023-09-30T09:11:18;19.40;99.90
21592;DHT22;10958;50.892;3.992;2023-09-30T09:13:49;19.20;99.90
21592;DHT22;10958;50.892;3.992;2023-09-30T09:16:17;18.90;99.90
21592;DHT22;10958;50.892;3.992;2023-09-30T09:18:46;19.00;99.90
21592;DHT22;10958;50.892;3.992;2023-09-30T09:21:17;19.30;99.90
21592;DHT22;10958;50.892;3.992;2023-09-30T09:23:45;19.40;99.90
21592;DHT22;10958;50.892;3.992;2023-09-30T09:26:24;19.60;99.90
21592;DHT22;10958;50.892;3.992;2023-09-30T09:28:56;19.40;99.90
21592;DHT22;10958;50.892;3.992;2023-09-30T09:31:24;19.60;99.90
21592;DHT22;10958;50.892;3.992;2023-09-30T09:34:02;20.10;99.90
21592;DHT22;10958;50.892;3.992;2023-09-30T09:36:58;20.20;99.90
21592;DHT22;10958;50.892;3.992;2023-09-30T09:39:33;20.00;99.90
21592;DHT22;10958;50.892;3.992;2023-09-30T09:41:59;19.90;99.90
21592;DHT22;10958;50.892;3.992;2023-09-30T09:44:27;20.20;99.90
21592;DHT22;10958;50.892;3.992;2023-09-30T09:46:58;20.30;99.90
21592;DHT22;10958;50.892;3.992;2023-09-30T09:49:25;20.50;99.90
21592;DHT22;10958;50.892;3.992;2023-09-30T09:51:52;20.90;99.90
21592;DHT22;10958;50.892;3.992;2023-09-30T09:54:19;21.20;99.90
21592;DHT22;10958;50.892;3.992;2023-09-30T09:56:45;21.50;99.90
21592;DHT22;10958;50.892;3.992;2023-09-30T09:59:12;21.50;99.90
21592;DHT22;10958;50.892;3.992;2023-09-30T10:03:41;21.30;99.90
21592;DHT22;10958;50.892;3.992;2023-09-30T10:06:07;21.30;99.90
21592;DHT22;10958;50.892;3.992;2023-09-30T10:08:41;21.20;99.90
21592;DHT22;10958;50.892;3.992;2023-09-30T10:11:17;21.20;99.90
21592;DHT22;10958;50.892;3.992;2023-09-30T10:13:51;21.30;99.90
21592;DHT22;10958;50.892;3.992;2023-09-30T10:19:22;21.40;99.90
21592;DHT22;10958;50.892;3.992;2023-09-30T10:24:42;21.20;99.90
21592;DHT22;10958;50.892;3.992;2023-09-30T10:35:19;20.70;99.90
21592;DHT22;10958;50.892;3.992;2023-09-30T10:37:45;20.90;99.90
21592;DHT22;10958;50.892;3.992;2023-09-30T10:40:31;20.80;99.90
21592;DHT22;10958;50.892;3.992;2023-09-30T10:42:57;20.50;99.90
21592;DHT22;10958;50.892;3.992;2023-09-30T10:51:11;20.90;99.90
21592;DHT22;10958;50.892;3.992;2023-09-30T10:53:45;21.00;99.90
21592;DHT22;10958;50.892;3.992;2023-09-30T10:56:14;21.20;99.90
21592;DHT22;10958;50.892;3.992;2023-09-30T10:58:55;21.10;99.90
21592;DHT22;10958;50.892;3.992;2023-09-30T11:01:23;21.00;99.90
21592;DHT22;10958;50.892;3.992;2023-09-30T11:03:50;21.10;99.90
21592;DHT22;10958;50.892;3.992;2023-09-30T11:06:21;21.10;99.90
21592;DHT22;10958;50.892;3.992;2023-09-30T11:08:55;21.00;99.90
21592;DHT22;10958;50.892;3.992;2023-09-30T11:11:43;21.10;99.90
21592;DHT22;10958;50.892;3.992;2023-09-30T11:14:30;20.90;99.90
21592;DHT22;10958;50.892;3.992;2023-09-30T11:16:57;20.70;99.90
21592;DHT22;10958;50.892;3.992;2023-09-30T11:19:23;20.80;99.90
21592;DHT22;10958;50.892;3.992;2023-09-30T11:21:52;20.90;99.90
21592;DHT22;10958;50.892;3.992;2023-09-30T11:24:18;20.90;99.90
21592;DHT22;10958;50.892;3.992;2023-09-30T11:26:45;20.90;99.90
21592;DHT22;10958;50.892;3.992;2023-09-30T11:29:15;21.10;99.90
21592;DHT22;10958;50.892;3.992;2023-09-30T11:31:42;21.30;99.90
21592;DHT22;10958;50.892;3.992;2023-09-30T11:34:09;21.40;99.90
21592;DHT22;10958;50.892;3.992;2023-09-30T11:36:51;21.40;99.90
21592;DHT22;10958;50.892;3.992;2023-09-30T11:39:28;21.50;99.90
21592;DHT22;10958;50.892;3.992;2023-09-30T11:41:55;21.70;99.90
21592;DHT22;10958;50.892;3.992;2023-09-30T11:44:25;21.20;99.90
21592;DHT22;10958;50.892;3.992;2023-09-30T11:47:01;21.00;99.90
21592;DHT22;10958;50.892;3.992;2023-09-30T11:49:40;21.10;99.90
21592;DHT22;10958;50.892;3.992;2023-09-30T11:52:25;21.10;99.90
21592;DHT22;10958;50.892;3.992;2023-09-30T11:55:10;21.30;99.90
21592;DHT22;10958;50.892;3.992;2023-09-30T11:57:47;21.20;99.90
21592;DHT22;10958;50.892;3.992;2023-09-30T12:00:15;21.20;99.90
21592;DHT22;10958;50.892;3.992;2023-09-30T12:02:45;21.30;99.90
21592;DHT22;10958;50.892;3.992;2023-09-30T12:05:20;21.40;99.90
21592;DHT22;10958;50.892;3.992;2023-09-30T12:08:02;21.60;99.90
21592;DHT22;10958;50.892;3.992;2023-09-30T12:10:33;21.50;99.90
21592;DHT22;10958;50.892;3.992;2023-09-30T12:13:00;21.50;99.90
21592;DHT22;10958;50.892;3.992;2023-09-30T12:15:25;21.50;99.90
21592;DHT22;10958;50.892;3.992;2023-09-30T12:17:54;21.50;99.90
21592;DHT22;10958;50.892;3.992;2023-09-30T12:20:20;21.70;99.90
21592;DHT22;10958;50.892;3.992;2023-09-30T12:22:46;21.70;99.90
21592;DHT22;10958;50.892;3.992;2023-09-30T12:25:12;21.70;99.90
21592;DHT22;10958;50.892;3.992;2023-09-30T12:27:38;21.60;99.90
21592;DHT22;10958;50.892;3.992;2023-09-30T12:30:06;21.50;99.90
21592;DHT22;10958;50.892;3.992;2023-09-30T12:32:32;21.60;99.90
21592;DHT22;10958;50.892;3.992;2023-09-30T12:34:58;21.70;99.90
21592;DHT22;10958;50.892;3.992;2023-09-30T12:37:23;21.80;99.90
21592;DHT22;10958;50.892;3.992;2023-09-30T12:39:49;21.60;99.90
21592;DHT22;10958;50.892;3.992;2023-09-30T12:42:15;21.50;99.90
21592;DHT22;10958;50.892;3.992;2023-09-30T12:44:41;21.20;99.90
21592;DHT22;10958;50.892;3.992;2023-09-30T12:47:07;21.30;99.90
21592;DHT22;10958;50.892;3.992;2023-09-30T12:49:33;21.50;99.90
21592;DHT22;10958;50.892;3.992;2023-09-30T12:51:59;21.30;99.90
21592;DHT22;10958;50.892;3.992;2023-09-30T12:54:25;21.40;99.90
21592;DHT22;10958;50.892;3.992;2023-09-30T12:56:51;21.30;99.90
21592;DHT22;10958;50.892;3.992;2023-09-30T12:59:17;21.30;99.90
21592;DHT22;10958;50.892;3.992;2023-09-30T13:01:43;21.20;99.90
21592;DHT22;10958;50.892;3.992;2023-09-30T13:04:09;21.40;99.90
21592;DHT22;10958;50.892;3.992;2023-09-30T13:06:36;21.80;99.90
21592;DHT22;10958;50.892;3.992;2023-09-30T13:09:02;21.90;99.90
21592;DHT22;10958;50.892;3.992;2023-09-30T13:11:31;22.00;99.90
21592;DHT22;10958;50.892;3.992;2023-09-30T13:13:56;22.00;99.90
21592;DHT22;10958;50.892;3.992;2023-09-30T13:16:22;21.80;99.90
21592;DHT22;10958;50.892;3.992;2023-09-30T13:18:48;21.60;99.90
21592;DHT22;10958;50.892;3.992;2023-09-30T13:21:15;21.20;99.90
21592;DHT22;10958;50.892;3.992;2023-09-30T13:23:41;21.60;99.90
21592;DHT22;10958;50.892;3.992;2023-09-30T13:26:07;21.80;99.90
21592;DHT22;10958;50.892;3.992;2023-09-30T13:28:33;21.80;99.90
21592;DHT22;10958;50.892;3.992;2023-09-30T13:30:59;21.90;99.90
21592;DHT22;10958;50.892;3.992;2023-09-30T13:33:27;21.70;99.90
21592;DHT22;10958;50.892;3.992;2023-09-30T13:35:53;21.40;99.90
21592;DHT22;10958;50.892;3.992;2023-09-30T13:38:20;21.60;99.90
21592;DHT22;10958;50.892;3.992;2023-09-30T13:40:49;21.80;99.90
21592;DHT22;10958;50.892;3.992;2023-09-30T13:43:15;22.00;99.90
21592;DHT22;10958;50.892;3.992;2023-09-30T13:45:40;22.10;99.90
21592;DHT22;10958;50.892;3.992;2023-09-30T13:48:06;22.00;99.90
21592;DHT22;10958;50.892;3.992;2023-09-30T13:50:32;21.90;99.90
21592;DHT22;10958;50.892;3.992;2023-09-30T13:52:57;21.80;99.90
21592;DHT22;10958;50.892;3.992;2023-09-30T13:55:26;21.80;99.90
21592;DHT22;10958;50.892;3.992;2023-09-30T13:57:52;21.70;99.90
21592;DHT22;10958;50.892;3.992;2023-09-30T14:00:17;21.70;99.90
21592;DHT22;10958;50.892;3.992;2023-09-30T14:02:43;21.80;99.90
21592;DHT22;10958;50.892;3.992;2023-09-30T14:05:10;21.70;99.90
21592;DHT22;10958;50.892;3.992;2023-09-30T14:07:37;22.00;99.90
21592;DHT22;10958;50.892;3.992;2023-09-30T14:10:03;22.00;99.90
21592;DHT22;10958;50.892;3.992;2023-09-30T14:12:30;21.80;99.90
21592;DHT22;10958;50.892;3.992;2023-09-30T14:14:57;22.00;99.90
21592;DHT22;10958;50.892;3.992;2023-09-30T14:17:22;22.00;99.90
21592;DHT22;10958;50.892;3.992;2023-09-30T14:19:48;21.90;99.90
21592;DHT22;10958;50.892;3.992;2023-09-30T14:22:15;21.90;99.90
21592;DHT22;10958;50.892;3.992;2023-09-30T14:24:43;21.60;99.90
21592;DHT22;10958;50.892;3.992;2023-09-30T14:27:08;21.60;99.90
21592;DHT22;10958;50.892;3.992;2023-09-30T14:29:34;21.60;99.90
21592;DHT22;10958;50.892;3.992;2023-09-30T14:32:00;21.60;99.90
21592;DHT22;10958;50.892;3.992;2023-09-30T14:34:26;21.60;99.90
21592;DHT22;10958;50.892;3.992;2023-09-30T14:36:52;21.60;99.90
21592;DHT22;10958;50.892;3.992;2023-09-30T14:39:18;21.50;99.90
21592;DHT22;10958;50.892;3.992;2023-09-30T14:41:45;21.50;99.90
21592;DHT22;10958;50.892;3.992;2023-09-30T14:44:11;21.60;99.90
21592;DHT22;10958;50.892;3.992;2023-09-30T14:46:38;21.60;99.90
21592;DHT22;10958;50.892;3.992;2023-09-30T14:49:04;21.40;99.90
21592;DHT22;10958;50.892;3.992;2023-09-30T14:51:32;21.30;99.90
21592;DHT22;10958;50.892;3.992;2023-09-30T14:53:58;21.20;99.90
21592;DHT22;10958;50.892;3.992;2023-09-30T14:56:24;21.20;99.90
21592;DHT22;10958;50.892;3.992;2023-09-30T14:58:49;21.20;99.90
21592;DHT22;10958;50.892;3.992;2023-09-30T15:01:15;21.40;99.90
21592;DHT22;10958;50.892;3.992;2023-09-30T15:03:41;21.30;99.90
21592;DHT22;10958;50.892;3.992;2023-09-30T15:06:08;21.30;99.90
21592;DHT22;10958;50.892;3.992;2023-09-30T15:08:34;21.20;99.90
21592;DHT22;10958;50.892;3.992;2023-09-30T15:11:01;21.30;99.90
21592;DHT22;10958;50.892;3.992;2023-09-30T15:13:28;21.50;99.90
21592;DHT22;10958;50.892;3.992;2023-09-30T15:15:54;21.40;99.90
21592;DHT22;10958;50.892;3.992;2023-09-30T15:18:22;21.30;99.90
21592;DHT22;10958;50.892;3.992;2023-09-30T15:20:51;21.30;99.90
21592;DHT22;10958;50.892;3.992;2023-09-30T15:23:17;21.40;99.90
21592;DHT22;10958;50.892;3.992;2023-09-30T15:25:44;21.50;99.90
21592;DHT22;10958;50.892;3.992;2023-09-30T15:28:11;21.40;99.90
21592;DHT22;10958;50.892;3.992;2023-09-30T15:30:38;21.30;99.90
21592;DHT22;10958;50.892;3.992;2023-09-30T15:33:04;21.20;99.90
21592;DHT22;10958;50.892;3.992;2023-09-30T15:35:30;21.30;99.90
21592;DHT22;10958;50.892;3.992;2023-09-30T15:37:56;21.40;99.90
21592;DHT22;10958;50.892;3.992;2023-09-30T15:40:23;21.40;99.90
21592;DHT22;10958;50.892;3.992;2023-09-30T15:42:49;21.20;99.90
21592;DHT22;10958;50.892;3.992;2023-09-30T15:45:15;21.00;99.90
21592;DHT22;10958;50.892;3.992;2023-09-30T15:47:43;20.90;99.90
21592;DHT22;10958;50.892;3.992;2023-09-30T15:50:10;21.20;99.90
21592;DHT22;10958;50.892;3.992;2023-09-30T15:52:36;21.20;99.90
21592;DHT22;10958;50.892;3.992;2023-09-30T15:55:02;21.20;99.90
21592;DHT22;10958;50.892;3.992;2023-09-30T15:57:28;21.20;99.90